Time;durP1;ratioP1;P1;durP2;ratioP2;P2;SDS_P1;SDS_P2;PMS_P1;PMS_P2;Temp;Humidity;BMP_temperature;BMP_pressure;BME280_temperature;BME280_humidity;BME280_pressure;Samples;Min_cycle;Max_cycle;Signal;HPM_P1;HPM_P2
2023/01/07 00:01:52;;;;;;;8.70;8.50;;;9.00;99.90;;;;;;6284828;22;20205;-81
2023/01/07 00:04:41;;;;;;;8.87;8.67;;;9.00;99.90;;;;;;6276284;22;20220;-81
2023/01/07 00:07:43;;;;;;;8.70;8.50;;;8.90;99.90;;;;;;6309984;22;20189;-81
2023/01/07 00:16:16;;;;;;;9.10;8.80;;;9.00;99.90;;;;;;6307386;22;20202;-80
2023/01/07 00:18:44;;;;;;;9.17;8.87;;;8.90;99.90;;;;;;6265309;22;20213;-80
2023/01/07 00:21:16;;;;;;;9.00;8.70;;;8.90;99.90;;;;;;6262209;22;20254;-80
2023/01/07 00:23:45;;;;;;;9.30;9.00;;;8.90;99.90;;;;;;6260622;22;20191;-80
2023/01/07 00:26:17;;;;;;;9.10;8.80;;;8.90;99.90;;;;;;6258150;22;20242;-80
2023/01/07 00:28:48;;;;;;;9.10;8.80;;;8.90;99.90;;;;;;6257986;22;20225;-80
2023/01/07 00:31:19;;;;;;;9.00;8.70;;;8.80;99.90;;;;;;6260239;22;20209;-81
2023/01/07 00:33:50;;;;;;;9.20;8.90;;;8.80;99.90;;;;;;6262643;22;20191;-80
2023/01/07 00:36:19;;;;;;;9.20;8.90;;;8.80;99.90;;;;;;6262215;22;20218;-79
2023/01/07 00:38:54;;;;;;;9.00;8.70;;;8.80;99.90;;;;;;6262630;22;20198;-82
2023/01/07 00:41:22;;;;;;;9.10;8.80;;;8.80;99.90;;;;;;6261587;22;20194;-80
2023/01/07 00:43:49;;;;;;;9.00;8.70;;;8.90;99.90;;;;;;6262943;22;20285;-80
2023/01/07 00:46:17;;;;;;;9.23;8.93;;;8.90;99.90;;;;;;6261975;22;20267;-80
2023/01/07 00:48:45;;;;;;;9.30;9.00;;;8.90;99.90;;;;;;6262272;22;20249;-80
2023/01/07 00:51:15;;;;;;;9.30;9.00;;;8.90;99.90;;;;;;6261629;22;20221;-80
2023/01/07 00:53:43;;;;;;;9.00;8.70;;;9.00;99.90;;;;;;6261465;22;20202;-80
2023/01/07 00:56:13;;;;;;;9.13;8.83;;;8.90;99.90;;;;;;6258027;22;20202;-80
2023/01/07 00:58:41;;;;;;;9.10;8.80;;;8.90;99.90;;;;;;6258405;22;20206;-80
2023/01/07 01:01:11;;;;;;;8.80;8.60;;;8.90;99.90;;;;;;6259603;22;20194;-80
2023/01/07 01:03:40;;;;;;;9.00;8.70;;;8.90;99.90;;;;;;6264369;22;20238;-80
2023/01/07 01:06:11;;;;;;;8.70;8.50;;;8.90;99.90;;;;;;6275546;22;20205;-79
2023/01/07 01:08:41;;;;;;;9.10;8.80;;;8.90;99.90;;;;;;6274273;22;20209;-80
2023/01/07 01:11:12;;;;;;;9.10;8.80;;;9.00;99.90;;;;;;6261454;22;20190;-80
2023/01/07 01:13:40;;;;;;;9.00;8.70;;;9.00;99.90;;;;;;6259790;22;20214;-80
2023/01/07 01:16:10;;;;;;;9.10;8.80;;;9.00;99.90;;;;;;6259136;22;20214;-80
2023/01/07 01:18:38;;;;;;;8.73;8.53;;;9.00;99.90;;;;;;6259662;22;20225;-80
2023/01/07 01:21:07;;;;;;;8.80;8.60;;;9.00;99.90;;;;;;6258968;22;20194;-80
2023/01/07 01:23:35;;;;;;;8.63;8.43;;;9.00;99.90;;;;;;6265093;22;20225;-80
2023/01/07 01:26:04;;;;;;;9.10;8.80;;;8.90;99.90;;;;;;6261258;22;20229;-79
2023/01/07 01:28:34;;;;;;;8.60;8.40;;;8.90;99.90;;;;;;6262325;22;20210;-79
2023/01/07 01:31:03;;;;;;;8.83;8.60;;;8.90;99.90;;;;;;6261197;22;20194;-79
2023/01/07 01:33:30;;;;;;;8.70;8.50;;;8.90;99.90;;;;;;6262885;22;20194;-80
2023/01/07 01:35:58;;;;;;;8.97;8.67;;;8.80;99.90;;;;;;6261750;22;20198;-82
2023/01/07 01:38:25;;;;;;;8.73;8.53;;;8.80;99.90;;;;;;6262222;22;20202;-80
2023/01/07 01:40:53;;;;;;;8.70;8.50;;;8.80;99.90;;;;;;6262220;22;20202;-80
2023/01/07 01:43:35;;;;;;;8.80;8.60;;;8.80;99.90;;;;;;6261537;22;20203;-79
2023/01/07 01:46:05;;;;;;;8.77;8.57;;;8.80;99.90;;;;;;6261370;22;20276;-79
2023/01/07 01:48:36;;;;;;;8.77;8.57;;;8.80;99.90;;;;;;6258966;22;20210;-79
2023/01/07 01:51:04;;;;;;;9.00;8.70;;;8.80;99.90;;;;;;6260881;22;20241;-82
2023/01/07 01:53:36;;;;;;;8.63;8.43;;;8.80;99.90;;;;;;6260995;22;20261;-80
2023/01/07 01:56:09;;;;;;;8.97;8.67;;;8.80;99.90;;;;;;6260828;22;20194;-80
2023/01/07 01:58:43;;;;;;;8.67;8.47;;;8.80;99.90;;;;;;6260718;22;20225;-80
2023/01/07 02:01:12;;;;;;;9.03;8.73;;;8.80;99.90;;;;;;6261971;22;20210;-80
2023/01/07 02:03:40;;;;;;;9.00;8.70;;;8.80;99.90;;;;;;6261740;22;20198;-80
2023/01/07 02:06:19;;;;;;;9.00;8.70;;;8.90;99.90;;;;;;6262302;22;20257;-80
2023/01/07 02:08:46;;;;;;;8.67;8.47;;;8.90;99.90;;;;;;6257213;22;20244;-80
2023/01/07 02:11:28;;;;;;;8.97;8.67;;;9.00;99.90;;;;;;6258415;22;20200;-80
2023/01/07 02:14:19;;;;;;;8.97;8.67;;;9.00;99.90;;;;;;6260999;22;20194;-80
2023/01/07 02:16:55;;;;;;;9.07;8.77;;;9.10;99.90;;;;;;6261667;22;20201;-81
2023/01/07 02:19:55;;;;;;;8.73;8.53;;;9.10;99.90;;;;;;6259372;22;20230;-82
2023/01/07 02:22:47;;;;;;;8.60;8.40;;;9.10;99.90;;;;;;6259357;22;20249;-80
2023/01/07 02:25:57;;;;;;;9.03;8.73;;;9.10;99.90;;;;;;6259564;22;20190;-80
2023/01/07 02:28:59;;;;;;;8.60;8.40;;;9.20;99.90;;;;;;6259756;22;20270;-80
2023/01/07 02:31:54;;;;;;;8.60;8.40;;;9.20;99.90;;;;;;6251798;22;20196;-80
2023/01/07 02:34:29;;;;;;;8.60;8.40;;;9.20;99.90;;;;;;6259774;22;20261;-80
2023/01/07 02:37:05;;;;;;;8.60;8.40;;;9.30;99.90;;;;;;6260052;22;20643;-80
2023/01/07 02:39:48;;;;;;;8.70;8.50;;;9.30;99.90;;;;;;6259003;22;20193;-80
2023/01/07 02:42:27;;;;;;;8.60;8.40;;;9.30;99.90;;;;;;6259238;22;20265;-80
2023/01/07 02:45:05;;;;;;;8.70;8.50;;;9.30;99.90;;;;;;6259386;22;20225;-80
2023/01/07 02:47:38;;;;;;;8.40;8.20;;;9.30;99.90;;;;;;6260994;22;20241;-80
2023/01/07 02:50:08;;;;;;;8.43;8.23;;;9.40;99.90;;;;;;6260366;22;20558;-80
2023/01/07 02:52:36;;;;;;;8.60;8.40;;;9.40;99.90;;;;;;6260204;22;20210;-82
2023/01/07 02:55:07;;;;;;;8.77;8.57;;;9.40;99.90;;;;;;6259263;22;20278;-80
2023/01/07 02:58:07;;;;;;;8.60;8.40;;;9.30;99.90;;;;;;6260939;22;20202;-81
2023/01/07 03:00:55;;;;;;;8.60;8.40;;;9.30;99.90;;;;;;6258512;22;20195;-80
2023/01/07 03:03:42;;;;;;;8.60;8.40;;;9.20;99.90;;;;;;6257548;22;20206;-80
2023/01/07 03:06:32;;;;;;;8.50;8.30;;;9.10;99.90;;;;;;6258045;22;20198;-80
2023/01/07 03:09:09;;;;;;;8.60;8.40;;;9.00;99.90;;;;;;6258193;22;20280;-80
2023/01/07 03:11:45;;;;;;;8.40;8.20;;;9.00;99.90;;;;;;6257435;22;20218;-80
2023/01/07 03:14:18;;;;;;;8.30;8.10;;;8.90;99.90;;;;;;6260799;22;20185;-81
2023/01/07 03:16:53;;;;;;;8.40;8.20;;;8.80;99.90;;;;;;6259932;22;20254;-81
2023/01/07 03:19:26;;;;;;;8.40;8.20;;;8.80;99.90;;;;;;6261344;22;20228;-81
2023/01/07 03:21:56;;;;;;;8.37;8.17;;;8.80;99.90;;;;;;6263426;22;20190;-81
2023/01/07 03:24:25;;;;;;;8.40;8.20;;;8.70;99.90;;;;;;6262357;22;20205;-81
2023/01/07 03:26:56;;;;;;;8.30;8.10;;;8.70;99.90;;;;;;6265712;22;20205;-81
2023/01/07 03:29:24;;;;;;;8.40;8.20;;;8.70;99.90;;;;;;6263672;22;20222;-83
2023/01/07 03:31:59;;;;;;;8.20;8.00;;;8.70;99.90;;;;;;6260892;22;20201;-80
2023/01/07 03:34:29;;;;;;;8.50;8.30;;;8.60;99.90;;;;;;6260674;22;20282;-81
2023/01/07 03:37:01;;;;;;;8.10;7.90;;;8.60;99.90;;;;;;6259433;22;20269;-81
2023/01/07 03:39:32;;;;;;;8.30;8.10;;;8.60;99.90;;;;;;6258983;22;20234;-82
2023/01/07 03:44:45;;;;;;;8.20;8.00;;;8.60;99.90;;;;;;6259166;22;20612;-81
2023/01/07 03:47:13;;;;;;;8.20;8.00;;;8.50;99.90;;;;;;6259489;22;20202;-81
2023/01/07 03:49:42;;;;;;;8.20;8.00;;;8.60;99.90;;;;;;6263468;22;20237;-81
2023/01/07 03:52:10;;;;;;;8.07;7.87;;;8.50;99.90;;;;;;6261567;22;20258;-81
2023/01/07 03:54:37;;;;;;;7.97;7.77;;;8.60;99.90;;;;;;6266898;22;20234;-81
2023/01/07 03:57:05;;;;;;;8.03;7.83;;;8.50;99.90;;;;;;6276383;22;20209;-81
2023/01/07 03:59:32;;;;;;;8.10;7.90;;;8.50;99.90;;;;;;6276781;22;20207;-81
2023/01/07 04:02:00;;;;;;;8.20;8.00;;;8.60;99.90;;;;;;6276936;22;20195;-81
2023/01/07 04:04:27;;;;;;;8.30;8.10;;;8.60;99.90;;;;;;6277059;22;20209;-81
2023/01/07 04:06:56;;;;;;;8.30;8.10;;;8.60;99.90;;;;;;6275593;22;20208;-81
2023/01/07 04:09:24;;;;;;;8.30;8.10;;;8.60;99.90;;;;;;6275570;22;20221;-81
2023/01/07 04:11:52;;;;;;;8.03;7.83;;;8.60;99.90;;;;;;6275478;22;20190;-80
2023/01/07 04:14:19;;;;;;;8.10;7.90;;;8.70;99.90;;;;;;6276487;22;20175;-81
2023/01/07 04:16:49;;;;;;;7.90;7.70;;;8.70;99.90;;;;;;6271783;22;20249;-80
2023/01/07 04:19:17;;;;;;;8.03;7.83;;;8.70;99.90;;;;;;6262574;22;20202;-80
2023/01/07 04:21:44;;;;;;;8.20;8.00;;;8.80;99.90;;;;;;6261863;22;20198;-81
2023/01/07 04:24:14;;;;;;;8.00;7.80;;;8.70;99.90;;;;;;6260165;22;20289;-80
2023/01/07 04:26:41;;;;;;;8.00;7.80;;;8.70;99.90;;;;;;6258063;22;20252;-81
2023/01/07 04:29:10;;;;;;;7.90;7.70;;;8.70;99.90;;;;;;6257881;22;20194;-81
2023/01/07 04:31:38;;;;;;;7.63;7.43;;;8.80;99.90;;;;;;6257292;22;20261;-80
2023/01/07 04:34:05;;;;;;;8.10;7.90;;;8.80;99.90;;;;;;6257299;22;20233;-81
2023/01/07 04:36:33;;;;;;;8.00;7.80;;;8.80;99.90;;;;;;6257322;22;20210;-80
2023/01/07 04:39:01;;;;;;;7.90;7.70;;;8.70;99.90;;;;;;6257634;22;20280;-80
2023/01/07 04:41:30;;;;;;;8.00;7.80;;;8.70;99.90;;;;;;6256980;22;20206;-81
2023/01/07 04:43:57;;;;;;;8.00;7.80;;;8.70;99.90;;;;;;6257419;22;20289;-80
2023/01/07 04:46:25;;;;;;;7.87;7.67;;;8.70;99.90;;;;;;6257232;22;20254;-81
2023/01/07 04:48:52;;;;;;;8.00;7.80;;;8.70;99.90;;;;;;6256448;22;20229;-80
2023/01/07 04:51:20;;;;;;;8.20;8.00;;;8.70;99.90;;;;;;6257439;22;20197;-80
2023/01/07 04:53:48;;;;;;;8.00;7.80;;;8.70;99.90;;;;;;6257627;22;20209;-80
2023/01/07 04:56:16;;;;;;;7.90;7.70;;;8.70;99.90;;;;;;6257928;22;20194;-81
2023/01/07 04:58:45;;;;;;;8.00;7.80;;;8.60;99.90;;;;;;6260503;22;20198;-80
2023/01/07 05:01:12;;;;;;;8.20;8.00;;;8.60;99.90;;;;;;6262134;22;20202;-80
2023/01/07 05:03:40;;;;;;;8.23;8.03;;;8.60;99.90;;;;;;6261680;22;20252;-80
2023/01/07 05:06:08;;;;;;;8.20;8.00;;;8.60;99.90;;;;;;6257426;22;20262;-80
2023/01/07 05:08:35;;;;;;;8.20;8.00;;;8.60;99.90;;;;;;6257180;22;20198;-80
2023/01/07 05:11:04;;;;;;;8.17;7.97;;;8.60;99.90;;;;;;6258086;22;20268;-81
2023/01/07 05:13:34;;;;;;;8.10;7.90;;;8.60;99.90;;;;;;6257491;22;20198;-80
2023/01/07 05:16:03;;;;;;;8.10;7.90;;;8.50;99.90;;;;;;6257887;22;20198;-80
2023/01/07 05:18:31;;;;;;;8.13;7.93;;;8.50;99.90;;;;;;6257523;22;20217;-80
2023/01/07 05:20:59;;;;;;;8.30;8.10;;;8.50;99.90;;;;;;6257036;22;20659;-80
2023/01/07 05:23:26;;;;;;;8.10;7.90;;;8.40;99.90;;;;;;6257315;22;20213;-80
2023/01/07 05:25:53;;;;;;;8.07;7.87;;;8.40;99.90;;;;;;6258811;22;20194;-80
2023/01/07 05:28:21;;;;;;;7.87;7.67;;;8.30;99.90;;;;;;6258769;22;20233;-81
2023/01/07 05:30:49;;;;;;;8.10;7.90;;;8.30;99.90;;;;;;6259245;22;20260;-80
2023/01/07 05:33:18;;;;;;;7.90;7.70;;;8.30;99.90;;;;;;6259164;22;20190;-81
2023/01/07 05:35:48;;;;;;;8.10;7.90;;;8.30;99.90;;;;;;6259642;22;20282;-80
2023/01/07 05:38:16;;;;;;;8.00;7.80;;;8.30;99.90;;;;;;6258686;22;20202;-81
2023/01/07 05:40:44;;;;;;;7.90;7.70;;;8.40;99.90;;;;;;6258380;22;20202;-80
2023/01/07 05:43:11;;;;;;;7.80;7.60;;;8.40;99.90;;;;;;6258801;22;20186;-81
2023/01/07 05:45:39;;;;;;;7.70;7.50;;;8.40;99.90;;;;;;6258902;22;20282;-80
2023/01/07 05:48:07;;;;;;;7.90;7.70;;;8.50;99.90;;;;;;6259312;22;20246;-81
2023/01/07 05:50:36;;;;;;;7.70;7.50;;;8.50;99.90;;;;;;6259016;22;20221;-81
2023/01/07 05:53:03;;;;;;;7.80;7.60;;;8.60;99.90;;;;;;6259263;22;20301;-80
2023/01/07 05:55:31;;;;;;;7.67;7.47;;;8.60;99.90;;;;;;6259579;22;20215;-80
2023/01/07 05:57:58;;;;;;;7.90;7.70;;;8.60;99.90;;;;;;6267281;22;20240;-80
2023/01/07 06:00:26;;;;;;;7.80;7.60;;;8.60;99.90;;;;;;6260567;22;20277;-81
2023/01/07 06:02:53;;;;;;;8.00;7.80;;;8.60;99.90;;;;;;6261198;22;20229;-81
2023/01/07 06:05:21;;;;;;;7.97;7.77;;;8.60;99.90;;;;;;6259965;22;20194;-81
2023/01/07 06:07:50;;;;;;;7.90;7.70;;;8.60;99.90;;;;;;6260665;22;20229;-81
2023/01/07 06:10:18;;;;;;;8.00;7.80;;;8.50;99.90;;;;;;6260265;22;20311;-81
2023/01/07 06:12:46;;;;;;;8.03;7.83;;;8.50;99.90;;;;;;6260347;22;20225;-80
2023/01/07 06:15:14;;;;;;;7.93;7.73;;;8.60;99.90;;;;;;6261809;22;20205;-80
2023/01/07 06:17:44;;;;;;;7.90;7.70;;;8.60;99.90;;;;;;6257449;22;20216;-80
2023/01/07 06:20:13;;;;;;;8.00;7.80;;;8.60;99.90;;;;;;6262551;22;20190;-80
2023/01/07 06:22:48;;;;;;;7.90;7.70;;;8.60;99.90;;;;;;6261020;22;20202;-81
2023/01/07 06:25:19;;;;;;;7.87;7.67;;;8.60;99.90;;;;;;6262444;22;20196;-81
2023/01/07 06:27:46;;;;;;;7.83;7.63;;;8.60;99.90;;;;;;6272446;22;20241;-80
2023/01/07 06:30:17;;;;;;;7.90;7.70;;;8.60;99.90;;;;;;6265597;22;20281;-81
2023/01/07 06:32:45;;;;;;;8.10;7.90;;;8.70;99.90;;;;;;6257664;22;20225;-81
2023/01/07 06:35:16;;;;;;;7.97;7.77;;;8.70;99.90;;;;;;6258631;22;20200;-81
2023/01/07 06:37:44;;;;;;;8.10;7.90;;;8.70;99.90;;;;;;6260890;22;20210;-82
2023/01/07 06:40:12;;;;;;;8.07;7.87;;;8.80;99.90;;;;;;6260284;22;20590;-81
2023/01/07 06:42:51;;;;;;;8.10;7.90;;;8.70;99.90;;;;;;6261294;22;20186;-81
2023/01/07 06:45:21;;;;;;;8.10;7.90;;;8.70;99.90;;;;;;6263978;22;20194;-81
2023/01/07 06:47:49;;;;;;;8.00;7.80;;;8.70;99.90;;;;;;6263442;22;20202;-82
2023/01/07 06:50:19;;;;;;;8.00;7.80;;;8.60;99.90;;;;;;6263327;22;20202;-81
2023/01/07 06:52:48;;;;;;;8.07;7.87;;;8.60;99.90;;;;;;6263164;22;20198;-81
2023/01/07 06:55:37;;;;;;;8.00;7.80;;;8.60;99.90;;;;;;6263115;22;20229;-82
2023/01/07 06:58:16;;;;;;;8.20;8.00;;;8.50;99.90;;;;;;6263257;22;20202;-83
2023/01/07 07:01:32;;;;;;;8.10;7.90;;;8.50;99.90;;;;;;6262592;22;20193;-83
2023/01/07 07:04:07;;;;;;;8.50;8.30;;;8.50;99.90;;;;;;6256015;22;20386;-83
2023/01/07 07:06:52;;;;;;;8.20;8.00;;;8.70;99.90;;;;;;6262074;22;20248;-82
2023/01/07 07:09:49;;;;;;;8.10;7.90;;;8.80;99.90;;;;;;6262133;22;20216;-83
2023/01/07 07:12:48;;;;;;;8.30;8.10;;;8.80;99.90;;;;;;6264186;22;20285;-83
2023/01/07 07:15:46;;;;;;;8.20;8.00;;;8.80;99.90;;;;;;6263743;22;20187;-83
2023/01/07 07:18:23;;;;;;;8.30;8.10;;;8.70;99.90;;;;;;6263682;22;20202;-82
2023/01/07 07:21:08;;;;;;;8.10;7.90;;;8.70;99.90;;;;;;6264083;22;20284;-82
2023/01/07 07:23:53;;;;;;;8.10;7.90;;;8.70;99.90;;;;;;6263067;22;20222;-82
2023/01/07 07:26:32;;;;;;;8.03;7.83;;;8.70;99.90;;;;;;6263799;22;20249;-82
2023/01/07 07:29:08;;;;;;;8.07;7.87;;;8.80;99.90;;;;;;6266083;22;20249;-83
2023/01/07 07:31:48;;;;;;;8.13;7.93;;;8.70;99.90;;;;;;6267301;22;20202;-83
2023/01/07 07:34:27;;;;;;;8.20;8.00;;;8.60;99.90;;;;;;6268062;22;20228;-83
2023/01/07 07:37:05;;;;;;;7.90;7.70;;;8.60;99.90;;;;;;6267276;22;20185;-83
2023/01/07 07:39:44;;;;;;;8.10;7.90;;;8.50;99.90;;;;;;6267086;22;20202;-83
2023/01/07 07:51:02;;;;;;;8.00;7.80;;;8.50;99.90;;;;;;6264304;22;20212;-80
2023/01/07 07:53:30;;;;;;;7.87;7.67;;;8.60;99.90;;;;;;6265656;22;20194;-82
2023/01/07 07:56:00;;;;;;;7.87;7.67;;;8.50;99.90;;;;;;6279648;22;20202;-82
2023/01/07 07:58:31;;;;;;;7.90;7.70;;;8.50;99.90;;;;;;6271090;22;20195;-82
2023/01/07 08:06:54;;;;;;;8.10;7.90;;;8.50;99.90;;;;;;6267588;22;20194;-83
2023/01/07 08:09:22;;;;;;;7.97;7.77;;;8.40;99.90;;;;;;6266630;22;20289;-81
2023/01/07 08:11:58;;;;;;;8.20;8.00;;;8.40;99.90;;;;;;6265250;22;20202;-82
2023/01/07 08:14:27;;;;;;;7.80;7.60;;;8.50;99.90;;;;;;6262242;22;20190;-83
2023/01/07 08:16:56;;;;;;;8.10;7.90;;;8.50;99.90;;;;;;6264211;22;20213;-83
2023/01/07 08:19:34;;;;;;;8.00;7.80;;;8.50;99.90;;;;;;6263042;22;20202;-82
2023/01/07 08:22:04;;;;;;;8.10;7.90;;;8.40;99.90;;;;;;6262886;22;20244;-81
2023/01/07 08:24:33;;;;;;;7.80;7.60;;;8.40;99.90;;;;;;6262554;22;20313;-81
2023/01/07 08:27:03;;;;;;;7.97;7.77;;;8.40;99.90;;;;;;6263790;22;20195;-82
2023/01/07 08:29:32;;;;;;;8.00;7.80;;;8.30;99.90;;;;;;6263139;22;20202;-83
2023/01/07 08:32:04;;;;;;;7.90;7.70;;;8.30;99.90;;;;;;6262777;22;20205;-83
2023/01/07 08:34:33;;;;;;;7.80;7.60;;;8.30;99.90;;;;;;6262833;22;20194;-82
2023/01/07 08:37:01;;;;;;;7.87;7.67;;;8.30;99.90;;;;;;6263001;22;20201;-82
2023/01/07 08:39:31;;;;;;;7.97;7.77;;;8.30;99.90;;;;;;6262127;22;20221;-82
2023/01/07 08:42:02;;;;;;;7.90;7.70;;;8.40;99.90;;;;;;6261960;22;20194;-81
2023/01/07 08:44:40;;;;;;;8.10;7.90;;;8.30;99.90;;;;;;6264149;22;20194;-82
2023/01/07 08:47:08;;;;;;;8.10;7.90;;;8.40;99.90;;;;;;6275206;22;20193;-82
2023/01/07 08:53:01;;;;;;;8.00;7.80;;;8.30;99.90;;;;;;6272871;22;20244;-84
2023/01/07 09:03:54;;;;;;;8.10;7.90;;;8.40;99.90;;;;;;6076627;23;20193;-86
2023/01/07 09:06:31;;;;;;;7.90;7.70;;;8.40;99.90;;;;;;6186429;22;20194;-81
2023/01/07 09:11:55;;;;;;;8.10;7.90;;;8.50;99.90;;;;;;6231126;23;20202;-83
2023/01/07 09:17:11;;;;;;;8.53;8.33;;;8.50;99.90;;;;;;6228558;23;20198;-85
2023/01/07 09:20:02;;;;;;;8.60;8.40;;;8.50;99.90;;;;;;6230600;22;20203;-81
2023/01/07 09:23:03;;;;;;;8.40;8.20;;;8.60;99.90;;;;;;6228793;23;20199;-81
2023/01/07 09:25:41;;;;;;;8.27;8.07;;;8.50;99.90;;;;;;6229378;23;20197;-81
2023/01/07 09:28:19;;;;;;;8.53;8.33;;;8.50;99.90;;;;;;6229382;22;20246;-82
2023/01/07 09:30:52;;;;;;;8.57;8.37;;;8.50;99.90;;;;;;6229495;23;20281;-81
2023/01/07 09:40:30;;;;;;;8.40;8.20;;;8.60;99.90;;;;;;6227432;22;20249;-84
2023/01/07 09:43:13;;;;;;;8.53;8.33;;;8.60;99.90;;;;;;6230279;23;20191;-82
2023/01/07 09:45:45;;;;;;;8.63;8.43;;;8.60;99.90;;;;;;6230701;23;20195;-81
2023/01/07 09:52:08;;;;;;;8.80;8.60;;;8.70;99.90;;;;;;6226718;23;20207;-84
2023/01/07 09:54:44;;;;;;;8.70;8.50;;;8.80;99.90;;;;;;6230583;23;20195;-82
2023/01/07 10:01:16;;;;;;;8.80;8.60;;;8.80;99.90;;;;;;6249226;23;20174;-82
2023/01/07 10:04:14;;;;;;;8.60;8.40;;;8.80;99.90;;;;;;6243513;23;20222;-82
2023/01/07 10:07:02;;;;;;;9.00;8.70;;;8.80;99.90;;;;;;6242591;23;20259;-84
2023/01/07 10:10:05;;;;;;;8.97;8.67;;;8.80;99.90;;;;;;6232231;22;20218;-83
2023/01/07 10:16:51;;;;;;;8.90;8.63;;;8.90;99.90;;;;;;6144027;23;20265;-84
2023/01/07 10:22:52;;;;;;;8.60;8.40;;;9.00;99.90;;;;;;6228226;23;20286;-84
2023/01/07 10:25:48;;;;;;;8.87;8.67;;;9.00;99.90;;;;;;6233138;23;20195;-83
2023/01/07 10:34:17;;;;;;;9.10;8.80;;;9.20;99.90;;;;;;6226568;23;20250;-83
2023/01/07 10:37:01;;;;;;;9.37;9.07;;;9.20;99.90;;;;;;6228211;23;20421;-83
2023/01/07 10:39:51;;;;;;;9.57;9.27;;;9.30;99.90;;;;;;6230311;22;20207;-82
2023/01/07 10:42:27;;;;;;;9.17;8.87;;;9.50;99.90;;;;;;6229314;23;20201;-84
2023/01/07 10:49:20;;;;;;;9.20;8.90;;;9.70;99.90;;;;;;6227342;22;20210;-82
2023/01/07 10:52:10;;;;;;;8.90;8.70;;;9.70;99.90;;;;;;6227589;23;20203;-83
2023/01/07 10:55:20;;;;;;;9.07;8.77;;;9.70;99.90;;;;;;6228977;23;20223;-84
2023/01/07 10:57:52;;;;;;;8.80;8.60;;;9.70;99.90;;;;;;6230894;22;20255;-82
2023/01/07 11:00:22;;;;;;;8.70;8.50;;;9.80;99.90;;;;;;6231395;23;20202;-83
2023/01/07 11:02:57;;;;;;;8.90;8.70;;;9.70;99.90;;;;;;6228903;23;20191;-82
2023/01/07 11:05:37;;;;;;;9.10;8.80;;;9.80;99.90;;;;;;6229967;23;20237;-82
2023/01/07 11:08:32;;;;;;;9.00;8.70;;;9.80;99.90;;;;;;6232505;22;20207;-81
2023/01/07 11:11:01;;;;;;;8.87;8.67;;;9.90;99.90;;;;;;6231732;23;20274;-81
2023/01/07 11:13:32;;;;;;;9.03;8.73;;;9.90;99.90;;;;;;6231420;23;20702;-81
2023/01/07 11:16:08;;;;;;;8.73;8.53;;;9.80;99.90;;;;;;6231505;23;20250;-79
2023/01/07 11:18:58;;;;;;;9.10;8.80;;;9.80;99.90;;;;;;6231859;22;20214;-82
2023/01/07 11:21:42;;;;;;;8.70;8.50;;;9.80;99.90;;;;;;6230270;23;20196;-82
2023/01/07 11:25:17;;;;;;;8.63;8.43;;;9.90;99.90;;;;;;6231180;23;20207;-83
2023/01/07 11:27:55;;;;;;;9.00;8.70;;;9.90;99.90;;;;;;6226021;22;20206;-82
2023/01/07 11:30:31;;;;;;;9.00;8.70;;;9.90;99.90;;;;;;6230418;23;20194;-82
2023/01/07 11:33:16;;;;;;;8.73;8.53;;;9.90;99.90;;;;;;6229224;23;20199;-83
2023/01/07 11:35:57;;;;;;;9.10;8.80;;;9.90;99.90;;;;;;6232489;23;20215;-82
2023/01/07 11:38:37;;;;;;;9.00;8.70;;;9.90;99.90;;;;;;6232030;22;20206;-82
2023/01/07 11:41:20;;;;;;;9.10;8.80;;;9.90;99.90;;;;;;6231639;23;20656;-82
2023/01/07 11:44:01;;;;;;;9.13;8.83;;;9.90;99.90;;;;;;6230662;23;20202;-82
2023/01/07 11:46:30;;;;;;;8.90;8.70;;;9.90;99.90;;;;;;6231075;23;20202;-81
2023/01/07 11:49:01;;;;;;;9.03;8.80;;;9.90;99.90;;;;;;6230030;22;20198;-81
2023/01/07 11:51:46;;;;;;;9.27;8.97;;;9.90;99.90;;;;;;6231091;23;20203;-81
2023/01/07 11:54:25;;;;;;;9.17;8.87;;;10.00;99.90;;;;;;6231330;23;20194;-81
2023/01/07 11:57:23;;;;;;;9.30;9.00;;;10.20;99.90;;;;;;6230881;23;20191;-82
2023/01/07 12:00:28;;;;;;;9.10;8.80;;;10.20;99.90;;;;;;6232453;23;20222;-82
2023/01/07 12:03:05;;;;;;;9.10;8.80;;;10.30;99.90;;;;;;6230884;23;20198;-82
2023/01/07 12:05:33;;;;;;;9.20;8.90;;;10.30;99.90;;;;;;6230785;23;20205;-82
2023/01/07 12:08:03;;;;;;;9.30;9.00;;;10.30;99.90;;;;;;6231819;22;20198;-81
2023/01/07 12:10:42;;;;;;;9.30;9.00;;;10.30;99.90;;;;;;6235202;23;20206;-82
2023/01/07 12:13:27;;;;;;;9.20;8.90;;;10.40;99.90;;;;;;6236255;23;20202;-81
2023/01/07 12:16:08;;;;;;;9.30;9.00;;;10.50;99.90;;;;;;6237036;23;20199;-82
2023/01/07 12:19:16;;;;;;;9.33;9.03;;;10.60;99.90;;;;;;6240589;22;20194;-80
2023/01/07 12:24:54;;;;;;;9.50;9.20;;;10.60;99.90;;;;;;6229280;23;20195;-87
2023/01/07 12:27:48;;;;;;;9.33;9.03;;;10.60;99.90;;;;;;6230512;23;20183;-84
2023/01/07 12:30:57;;;;;;;9.40;9.10;;;10.60;99.90;;;;;;6229769;23;20251;-82
2023/01/07 12:34:42;;;;;;;9.53;9.23;;;10.50;99.90;;;;;;6229349;22;20195;-84
2023/01/07 12:41:09;;;;;;;9.60;9.30;;;10.60;99.90;;;;;;6216729;23;20183;-84
2023/01/07 12:47:49;;;;;;;;;;;;;;;;;;;;;
2023/01/07 12:50:34;;;;;;;9.23;8.93;;;10.60;99.90;;;;;;6242122;22;20210;-85
2023/01/07 12:53:21;;;;;;;9.43;9.13;;;10.60;99.90;;;;;;6246632;22;20209;-86
2023/01/07 12:55:57;;;;;;;9.10;8.80;;;10.60;99.90;;;;;;6229695;23;20207;-85
2023/01/07 12:58:44;;;;;;;9.07;8.77;;;10.60;99.90;;;;;;6230178;23;20195;-84
2023/01/07 13:02:13;;;;;;;;;;;;;;;;;;;;;
2023/01/07 13:05:13;;;;;;;9.00;8.70;;;10.50;99.90;;;;;;6202274;23;20236;-84
2023/01/07 13:08:09;;;;;;;;;;;;;;;;;;;;;
2023/01/07 13:11:04;;;;;;;9.10;8.80;;;10.40;99.90;;;;;;6231364;23;20199;-84
2023/01/07 13:14:05;;;;;;;8.83;8.63;;;10.40;99.90;;;;;;6250419;22;20246;-86
2023/01/07 13:16:45;;;;;;;9.30;9.00;;;10.50;99.90;;;;;;6206727;23;20206;-85
2023/01/07 13:21:57;;;;;;;8.87;8.63;;;10.60;99.90;;;;;;6222019;22;20285;-85
2023/01/07 13:28:19;;;;;;;9.20;8.90;;;10.90;99.90;;;;;;6212358;23;20195;-85
2023/01/07 13:31:08;;;;;;;9.13;8.83;;;10.80;99.90;;;;;;6226920;23;20195;-86
2023/01/07 13:33:45;;;;;;;9.30;9.00;;;10.80;99.90;;;;;;6227229;23;20274;-85
2023/01/07 13:36:26;;;;;;;9.20;8.90;;;10.70;99.90;;;;;;6226523;23;20222;-85
2023/01/07 13:39:39;;;;;;;9.20;8.90;;;10.70;99.90;;;;;;6226772;23;20222;-85
2023/01/07 13:42:33;;;;;;;9.10;8.80;;;11.00;99.90;;;;;;6221398;22;20289;-86
2023/01/07 13:55:37;;;;;;;9.00;8.70;;;11.90;99.90;;;;;;6099533;23;20296;-85
2023/01/07 13:58:52;;;;;;;9.20;8.90;;;11.60;99.90;;;;;;6217607;23;20201;-86
2023/01/07 14:01:28;;;;;;;9.30;9.00;;;11.50;99.90;;;;;;6225973;23;20254;-85
2023/01/07 14:04:37;;;;;;;9.63;9.33;;;11.30;99.90;;;;;;6227497;23;20202;-86
2023/01/07 14:07:05;;;;;;;9.33;9.03;;;11.30;99.90;;;;;;6195290;23;20194;-85
2023/01/07 14:09:43;;;;;;;9.43;9.13;;;11.50;99.90;;;;;;6235935;23;20203;-87
2023/01/07 14:16:37;;;;;;;9.60;9.30;;;11.90;99.90;;;;;;6210916;23;20203;-87
2023/01/07 14:22:25;;;;;;;9.50;9.20;;;12.00;99.90;;;;;;6225504;22;20213;-86
2023/01/07 14:28:45;;;;;;;9.77;9.47;;;12.30;99.90;;;;;;6240868;22;20195;-86
2023/01/07 14:31:49;;;;;;;9.57;9.27;;;12.20;99.90;;;;;;6249307;22;20190;-85
2023/01/07 14:37:41;;;;;;;9.70;9.40;;;12.40;99.90;;;;;;6245720;22;20222;-84
2023/01/07 14:41:01;;;;;;;9.60;9.30;;;12.30;99.90;;;;;;6248620;22;20205;-87
2023/01/07 14:59:04;;;;;;;9.33;9.03;;;13.40;99.90;;;;;;6134978;23;20260;-87
2023/01/07 15:22:47;;;;;;;9.10;8.80;;;11.20;99.90;;;;;;6223102;22;20199;-87
2023/01/07 15:25:53;;;;;;;9.13;8.83;;;11.00;99.90;;;;;;6222034;23;20209;-86
2023/01/07 15:28:52;;;;;;;9.60;9.30;;;10.80;99.90;;;;;;6226117;23;20218;-87
2023/01/07 15:32:04;;;;;;;9.37;9.07;;;10.70;99.90;;;;;;6226094;22;20342;-86
2023/01/07 16:14:23;;;;;;;8.40;8.20;;;10.00;99.90;;;;;;5201825;27;20539;-87
2023/01/07 16:23:36;;;;;;;8.40;8.20;;;9.70;99.90;;;;;;5176779;27;20199;-87
2023/01/07 16:28:45;;;;;;;8.33;8.13;;;9.70;99.90;;;;;;5123837;22;20289;-87
2023/01/07 16:35:04;;;;;;;8.20;8.00;;;9.60;99.90;;;;;;5034819;28;20322;-85
2023/01/07 16:40:36;;;;;;;8.20;8.00;;;9.40;99.90;;;;;;5034834;28;20224;-86
2023/01/07 16:43:40;;;;;;;8.17;7.97;;;9.30;99.90;;;;;;5035302;28;20282;-86
2023/01/07 16:46:46;;;;;;;8.20;8.00;;;9.30;99.90;;;;;;5033734;28;20276;-89
2023/01/07 16:49:43;;;;;;;;;;;;;;;;;;;;;
2023/01/07 16:52:21;;;;;;;8.20;8.00;;;9.00;99.90;;;;;;5044464;28;20223;-84
2023/01/07 16:54:51;;;;;;;8.50;8.30;;;8.80;99.90;;;;;;5038794;28;20234;-83
2023/01/07 16:57:43;;;;;;;8.30;8.10;;;8.70;99.90;;;;;;5046225;28;20236;-84
2023/01/07 17:00:23;;;;;;;8.40;8.20;;;8.60;99.90;;;;;;5038737;28;20224;-84
2023/01/07 17:05:39;;;;;;;8.30;8.10;;;8.50;99.90;;;;;;5043690;28;20317;-84
2023/01/07 17:08:19;;;;;;;8.20;8.00;;;8.50;99.90;;;;;;5048339;28;20250;-85
2023/01/07 17:10:59;;;;;;;8.30;8.10;;;8.40;99.90;;;;;;5045304;28;20760;-84
2023/01/07 17:13:43;;;;;;;8.40;8.20;;;8.30;99.90;;;;;;5027901;28;20236;-84
2023/01/07 17:19:26;;;;;;;8.40;8.20;;;8.00;99.90;;;;;;5021941;28;20228;-84
2023/01/07 17:21:58;;;;;;;8.40;8.20;;;7.80;99.90;;;;;;5021149;28;20239;-84
2023/01/07 17:27:56;;;;;;;8.17;7.97;;;7.60;99.90;;;;;;4976668;28;20234;-85
2023/01/07 17:30:38;;;;;;;8.40;8.20;;;7.50;99.90;;;;;;5022586;28;20251;-84